sensor_id;sensor_type;location;lat;lon;timestamp;P1;durP1;ratioP1;P2;durP2;ratioP2
51724;SDS011;37801;53.224;6.552;2023-08-06T00:00:06;11.13;;;9.15;;
51724;SDS011;37801;53.224;6.552;2023-08-06T00:02:33;11.02;;;9.07;;
51724;SDS011;37801;53.224;6.552;2023-08-06T00:04:59;12.55;;;9.18;;
51724;SDS011;37801;53.224;6.552;2023-08-06T00:07:24;12.82;;;9.50;;
51724;SDS011;37801;53.224;6.552;2023-08-06T00:09:50;12.93;;;9.10;;
51724;SDS011;37801;53.224;6.552;2023-08-06T00:12:16;12.30;;;9.60;;
51724;SDS011;37801;53.224;6.552;2023-08-06T00:14:41;12.63;;;9.30;;
51724;SDS011;37801;53.224;6.552;2023-08-06T00:17:07;13.65;;;9.52;;
51724;SDS011;37801;53.224;6.552;2023-08-06T00:19:33;11.88;;;9.18;;
51724;SDS011;37801;53.224;6.552;2023-08-06T00:21:59;11.43;;;8.40;;
51724;SDS011;37801;53.224;6.552;2023-08-06T00:24:24;13.57;;;9.07;;
51724;SDS011;37801;53.224;6.552;2023-08-06T00:26:50;10.93;;;9.05;;
51724;SDS011;37801;53.224;6.552;2023-08-06T00:29:16;12.80;;;9.25;;
51724;SDS011;37801;53.224;6.552;2023-08-06T00:31:41;12.13;;;9.18;;
51724;SDS011;37801;53.224;6.552;2023-08-06T00:34:07;11.95;;;8.95;;
51724;SDS011;37801;53.224;6.552;2023-08-06T00:36:32;11.32;;;9.27;;
51724;SDS011;37801;53.224;6.552;2023-08-06T00:38:58;12.00;;;8.85;;
51724;SDS011;37801;53.224;6.552;2023-08-06T00:41:24;10.48;;;8.75;;
51724;SDS011;37801;53.224;6.552;2023-08-06T00:43:49;11.27;;;8.90;;
51724;SDS011;37801;53.224;6.552;2023-08-06T00:46:15;12.68;;;9.20;;
51724;SDS011;37801;53.224;6.552;2023-08-06T00:48:41;10.23;;;8.50;;
51724;SDS011;37801;53.224;6.552;2023-08-06T00:51:08;10.23;;;8.70;;
51724;SDS011;37801;53.224;6.552;2023-08-06T00:53:35;10.65;;;8.43;;
51724;SDS011;37801;53.224;6.552;2023-08-06T00:56:02;11.60;;;8.82;;
51724;SDS011;37801;53.224;6.552;2023-08-06T00:58:28;11.32;;;8.32;;
51724;SDS011;37801;53.224;6.552;2023-08-06T01:00:54;12.23;;;9.43;;
51724;SDS011;37801;53.224;6.552;2023-08-06T01:03:20;13.25;;;8.50;;
51724;SDS011;37801;53.224;6.552;2023-08-06T01:05:45;13.52;;;8.70;;
51724;SDS011;37801;53.224;6.552;2023-08-06T01:13:45;10.43;;;7.95;;
51724;SDS011;37801;53.224;6.552;2023-08-06T01:16:17;10.90;;;8.40;;
51724;SDS011;37801;53.224;6.552;2023-08-06T01:18:43;12.85;;;9.23;;
51724;SDS011;37801;53.224;6.552;2023-08-06T01:21:14;10.05;;;8.85;;
51724;SDS011;37801;53.224;6.552;2023-08-06T01:23:43;10.88;;;8.93;;
51724;SDS011;37801;53.224;6.552;2023-08-06T01:26:12;9.43;;;8.43;;
51724;SDS011;37801;53.224;6.552;2023-08-06T01:29:27;10.38;;;8.32;;
51724;SDS011;37801;53.224;6.552;2023-08-06T01:31:43;11.07;;;8.35;;
51724;SDS011;37801;53.224;6.552;2023-08-06T01:34:20;11.25;;;8.90;;
51724;SDS011;37801;53.224;6.552;2023-08-06T01:36:47;10.85;;;8.98;;
51724;SDS011;37801;53.224;6.552;2023-08-06T01:39:13;12.98;;;8.93;;
51724;SDS011;37801;53.224;6.552;2023-08-06T01:41:39;9.70;;;8.70;;
51724;SDS011;37801;53.224;6.552;2023-08-06T01:44:04;14.70;;;9.98;;
51724;SDS011;37801;53.224;6.552;2023-08-06T01:46:30;13.70;;;10.15;;
51724;SDS011;37801;53.224;6.552;2023-08-06T01:48:55;11.75;;;9.95;;
51724;SDS011;37801;53.224;6.552;2023-08-06T01:51:21;12.90;;;10.45;;
51724;SDS011;37801;53.224;6.552;2023-08-06T01:53:47;13.25;;;10.88;;
51724;SDS011;37801;53.224;6.552;2023-08-06T01:56:12;13.43;;;10.75;;
51724;SDS011;37801;53.224;6.552;2023-08-06T01:58:38;13.27;;;11.32;;
51724;SDS011;37801;53.224;6.552;2023-08-06T02:01:04;13.05;;;10.40;;
51724;SDS011;37801;53.224;6.552;2023-08-06T02:03:29;12.73;;;10.88;;
51724;SDS011;37801;53.224;6.552;2023-08-06T02:05:55;12.48;;;10.82;;
51724;SDS011;37801;53.224;6.552;2023-08-06T02:08:21;12.13;;;10.43;;
51724;SDS011;37801;53.224;6.552;2023-08-06T02:10:46;13.60;;;11.15;;
51724;SDS011;37801;53.224;6.552;2023-08-06T02:13:12;13.15;;;11.65;;
51724;SDS011;37801;53.224;6.552;2023-08-06T02:15:44;13.65;;;11.60;;
51724;SDS011;37801;53.224;6.552;2023-08-06T02:18:13;14.93;;;12.18;;
51724;SDS011;37801;53.224;6.552;2023-08-06T02:20:39;13.23;;;11.20;;
51724;SDS011;37801;53.224;6.552;2023-08-06T02:23:05;13.00;;;11.23;;
51724;SDS011;37801;53.224;6.552;2023-08-06T02:25:31;15.13;;;11.52;;
51724;SDS011;37801;53.224;6.552;2023-08-06T02:27:57;13.95;;;11.45;;
51724;SDS011;37801;53.224;6.552;2023-08-06T02:30:23;14.68;;;11.23;;
51724;SDS011;37801;53.224;6.552;2023-08-06T02:32:48;12.77;;;11.23;;
51724;SDS011;37801;53.224;6.552;2023-08-06T02:35:14;14.75;;;11.60;;
51724;SDS011;37801;53.224;6.552;2023-08-06T02:37:40;13.10;;;11.52;;
51724;SDS011;37801;53.224;6.552;2023-08-06T02:40:05;13.07;;;11.68;;
51724;SDS011;37801;53.224;6.552;2023-08-06T02:42:31;14.07;;;11.80;;
51724;SDS011;37801;53.224;6.552;2023-08-06T02:44:57;13.90;;;11.40;;
51724;SDS011;37801;53.224;6.552;2023-08-06T02:47:23;13.38;;;11.90;;
51724;SDS011;37801;53.224;6.552;2023-08-06T02:49:49;14.45;;;12.05;;
51724;SDS011;37801;53.224;6.552;2023-08-06T02:52:14;15.88;;;12.32;;
51724;SDS011;37801;53.224;6.552;2023-08-06T02:54:40;15.02;;;12.02;;
51724;SDS011;37801;53.224;6.552;2023-08-06T02:57:06;13.35;;;11.63;;
51724;SDS011;37801;53.224;6.552;2023-08-06T02:59:32;13.90;;;11.48;;
51724;SDS011;37801;53.224;6.552;2023-08-06T03:01:57;15.35;;;12.90;;
51724;SDS011;37801;53.224;6.552;2023-08-06T03:04:23;13.90;;;12.40;;
51724;SDS011;37801;53.224;6.552;2023-08-06T03:06:49;14.38;;;12.25;;
51724;SDS011;37801;53.224;6.552;2023-08-06T03:09:16;13.68;;;12.27;;
51724;SDS011;37801;53.224;6.552;2023-08-06T03:11:42;16.25;;;12.52;;
51724;SDS011;37801;53.224;6.552;2023-08-06T03:14:07;13.77;;;11.52;;
51724;SDS011;37801;53.224;6.552;2023-08-06T03:16:33;12.73;;;10.95;;
51724;SDS011;37801;53.224;6.552;2023-08-06T03:18:59;13.38;;;11.98;;
51724;SDS011;37801;53.224;6.552;2023-08-06T03:21:24;14.57;;;11.52;;
51724;SDS011;37801;53.224;6.552;2023-08-06T03:23:50;16.27;;;11.02;;
51724;SDS011;37801;53.224;6.552;2023-08-06T03:26:16;14.55;;;11.70;;
51724;SDS011;37801;53.224;6.552;2023-08-06T03:28:41;13.55;;;11.32;;
51724;SDS011;37801;53.224;6.552;2023-08-06T03:31:07;13.75;;;10.43;;
51724;SDS011;37801;53.224;6.552;2023-08-06T03:33:33;13.88;;;10.82;;
51724;SDS011;37801;53.224;6.552;2023-08-06T03:35:59;11.90;;;10.48;;
51724;SDS011;37801;53.224;6.552;2023-08-06T03:38:24;13.20;;;10.65;;
51724;SDS011;37801;53.224;6.552;2023-08-06T03:40:50;12.88;;;10.70;;
51724;SDS011;37801;53.224;6.552;2023-08-06T03:43:16;13.07;;;10.80;;
51724;SDS011;37801;53.224;6.552;2023-08-06T03:45:42;12.73;;;10.68;;
51724;SDS011;37801;53.224;6.552;2023-08-06T03:48:07;13.45;;;10.52;;
51724;SDS011;37801;53.224;6.552;2023-08-06T03:50:34;13.00;;;10.80;;
51724;SDS011;37801;53.224;6.552;2023-08-06T03:53:00;12.82;;;10.32;;
51724;SDS011;37801;53.224;6.552;2023-08-06T03:55:26;12.88;;;10.95;;
51724;SDS011;37801;53.224;6.552;2023-08-06T03:57:51;13.43;;;9.95;;
51724;SDS011;37801;53.224;6.552;2023-08-06T04:00:17;13.70;;;10.85;;
51724;SDS011;37801;53.224;6.552;2023-08-06T04:02:43;12.68;;;10.38;;
51724;SDS011;37801;53.224;6.552;2023-08-06T04:05:08;11.25;;;10.10;;
51724;SDS011;37801;53.224;6.552;2023-08-06T04:07:34;14.63;;;10.63;;
51724;SDS011;37801;53.224;6.552;2023-08-06T04:10:01;13.45;;;10.20;;
51724;SDS011;37801;53.224;6.552;2023-08-06T04:12:29;12.93;;;10.45;;
51724;SDS011;37801;53.224;6.552;2023-08-06T04:14:56;12.68;;;10.45;;
51724;SDS011;37801;53.224;6.552;2023-08-06T04:17:23;13.38;;;10.48;;
51724;SDS011;37801;53.224;6.552;2023-08-06T04:19:50;14.05;;;10.93;;
51724;SDS011;37801;53.224;6.552;2023-08-06T04:22:17;12.85;;;10.57;;
51724;SDS011;37801;53.224;6.552;2023-08-06T04:24:43;12.40;;;10.73;;
51724;SDS011;37801;53.224;6.552;2023-08-06T04:27:09;13.18;;;11.38;;
51724;SDS011;37801;53.224;6.552;2023-08-06T04:29:36;12.35;;;10.68;;
51724;SDS011;37801;53.224;6.552;2023-08-06T04:32:03;12.15;;;10.85;;
51724;SDS011;37801;53.224;6.552;2023-08-06T04:34:29;14.18;;;11.65;;
51724;SDS011;37801;53.224;6.552;2023-08-06T04:36:54;15.38;;;10.82;;
51724;SDS011;37801;53.224;6.552;2023-08-06T04:39:20;13.55;;;10.60;;
51724;SDS011;37801;53.224;6.552;2023-08-06T04:41:46;12.98;;;10.10;;
51724;SDS011;37801;53.224;6.552;2023-08-06T04:44:11;13.18;;;10.05;;
51724;SDS011;37801;53.224;6.552;2023-08-06T04:46:37;11.50;;;9.82;;
51724;SDS011;37801;53.224;6.552;2023-08-06T04:49:02;12.80;;;10.30;;
51724;SDS011;37801;53.224;6.552;2023-08-06T04:51:28;12.40;;;9.93;;
51724;SDS011;37801;53.224;6.552;2023-08-06T04:53:54;12.55;;;10.25;;
51724;SDS011;37801;53.224;6.552;2023-08-06T04:56:19;10.93;;;9.15;;
51724;SDS011;37801;53.224;6.552;2023-08-06T04:58:45;12.48;;;9.68;;
51724;SDS011;37801;53.224;6.552;2023-08-06T05:01:10;11.25;;;9.63;;
51724;SDS011;37801;53.224;6.552;2023-08-06T05:03:36;11.35;;;10.15;;
51724;SDS011;37801;53.224;6.552;2023-08-06T05:06:02;12.73;;;10.02;;
51724;SDS011;37801;53.224;6.552;2023-08-06T05:08:27;11.38;;;9.73;;
51724;SDS011;37801;53.224;6.552;2023-08-06T05:10:53;12.85;;;9.43;;
51724;SDS011;37801;53.224;6.552;2023-08-06T05:13:19;12.20;;;10.07;;
51724;SDS011;37801;53.224;6.552;2023-08-06T05:15:44;11.27;;;9.70;;
51724;SDS011;37801;53.224;6.552;2023-08-06T05:18:11;10.82;;;8.77;;
51724;SDS011;37801;53.224;6.552;2023-08-06T05:20:40;12.70;;;10.45;;
51724;SDS011;37801;53.224;6.552;2023-08-06T05:23:07;13.70;;;10.15;;
51724;SDS011;37801;53.224;6.552;2023-08-06T05:25:36;13.98;;;9.98;;
51724;SDS011;37801;53.224;6.552;2023-08-06T05:28:02;17.20;;;10.27;;
51724;SDS011;37801;53.224;6.552;2023-08-06T05:30:28;12.70;;;9.52;;
51724;SDS011;37801;53.224;6.552;2023-08-06T05:32:54;11.30;;;9.65;;
51724;SDS011;37801;53.224;6.552;2023-08-06T05:35:20;13.23;;;10.00;;
51724;SDS011;37801;53.224;6.552;2023-08-06T05:37:46;11.57;;;10.10;;
51724;SDS011;37801;53.224;6.552;2023-08-06T05:40:12;12.05;;;10.23;;
51724;SDS011;37801;53.224;6.552;2023-08-06T05:42:38;11.15;;;9.50;;
51724;SDS011;37801;53.224;6.552;2023-08-06T05:45:04;13.45;;;11.07;;
51724;SDS011;37801;53.224;6.552;2023-08-06T05:47:30;14.25;;;10.98;;
51724;SDS011;37801;53.224;6.552;2023-08-06T05:49:55;14.20;;;11.73;;
51724;SDS011;37801;53.224;6.552;2023-08-06T05:52:21;14.43;;;11.65;;
51724;SDS011;37801;53.224;6.552;2023-08-06T05:54:47;13.27;;;10.93;;
51724;SDS011;37801;53.224;6.552;2023-08-06T05:57:12;13.80;;;11.15;;
51724;SDS011;37801;53.224;6.552;2023-08-06T05:59:40;14.98;;;11.10;;
51724;SDS011;37801;53.224;6.552;2023-08-06T06:02:06;13.82;;;11.25;;
51724;SDS011;37801;53.224;6.552;2023-08-06T06:04:31;13.30;;;10.85;;
51724;SDS011;37801;53.224;6.552;2023-08-06T06:06:57;13.25;;;10.90;;
51724;SDS011;37801;53.224;6.552;2023-08-06T06:09:23;15.15;;;10.75;;
51724;SDS011;37801;53.224;6.552;2023-08-06T06:11:48;13.35;;;10.65;;
51724;SDS011;37801;53.224;6.552;2023-08-06T06:14:15;12.85;;;11.30;;
51724;SDS011;37801;53.224;6.552;2023-08-06T06:16:41;13.65;;;11.00;;
51724;SDS011;37801;53.224;6.552;2023-08-06T06:19:07;14.32;;;11.70;;
51724;SDS011;37801;53.224;6.552;2023-08-06T06:21:33;17.65;;;13.43;;
51724;SDS011;37801;53.224;6.552;2023-08-06T06:23:58;18.67;;;12.68;;
51724;SDS011;37801;53.224;6.552;2023-08-06T06:26:24;14.38;;;11.43;;
51724;SDS011;37801;53.224;6.552;2023-08-06T06:28:50;13.93;;;9.85;;
51724;SDS011;37801;53.224;6.552;2023-08-06T06:31:15;10.38;;;9.23;;
51724;SDS011;37801;53.224;6.552;2023-08-06T06:34:01;10.32;;;9.00;;
51724;SDS011;37801;53.224;6.552;2023-08-06T06:36:46;10.95;;;9.18;;
51724;SDS011;37801;53.224;6.552;2023-08-06T06:39:32;11.70;;;9.65;;
51724;SDS011;37801;53.224;6.552;2023-08-06T06:42:18;10.27;;;8.88;;
51724;SDS011;37801;53.224;6.552;2023-08-06T06:45:04;13.02;;;8.88;;
51724;SDS011;37801;53.224;6.552;2023-08-06T06:47:49;10.63;;;8.18;;
51724;SDS011;37801;53.224;6.552;2023-08-06T06:50:35;10.30;;;8.10;;
51724;SDS011;37801;53.224;6.552;2023-08-06T06:53:21;9.18;;;7.88;;
51724;SDS011;37801;53.224;6.552;2023-08-06T06:56:13;9.90;;;7.80;;
51724;SDS011;37801;53.224;6.552;2023-08-06T06:58:58;9.98;;;7.63;;
51724;SDS011;37801;53.224;6.552;2023-08-06T07:01:44;8.65;;;7.38;;
51724;SDS011;37801;53.224;6.552;2023-08-06T07:04:30;9.45;;;7.93;;
51724;SDS011;37801;53.224;6.552;2023-08-06T07:07:15;8.93;;;7.25;;
51724;SDS011;37801;53.224;6.552;2023-08-06T07:10:01;9.00;;;7.40;;
51724;SDS011;37801;53.224;6.552;2023-08-06T07:12:46;9.02;;;7.38;;
51724;SDS011;37801;53.224;6.552;2023-08-06T07:15:32;8.93;;;7.43;;
51724;SDS011;37801;53.224;6.552;2023-08-06T07:18:18;11.20;;;7.38;;
51724;SDS011;37801;53.224;6.552;2023-08-06T07:21:04;9.20;;;7.43;;
51724;SDS011;37801;53.224;6.552;2023-08-06T07:23:50;9.95;;;8.07;;
51724;SDS011;37801;53.224;6.552;2023-08-06T07:26:39;8.95;;;7.03;;
51724;SDS011;37801;53.224;6.552;2023-08-06T07:29:24;8.77;;;7.40;;
51724;SDS011;37801;53.224;6.552;2023-08-06T07:32:10;8.30;;;7.35;;
51724;SDS011;37801;53.224;6.552;2023-08-06T07:34:55;8.25;;;7.38;;
51724;SDS011;37801;53.224;6.552;2023-08-06T07:37:41;9.27;;;7.45;;
51724;SDS011;37801;53.224;6.552;2023-08-06T07:40:27;11.77;;;7.60;;
51724;SDS011;37801;53.224;6.552;2023-08-06T07:43:12;9.35;;;7.18;;
51724;SDS011;37801;53.224;6.552;2023-08-06T07:45:58;8.30;;;6.78;;
51724;SDS011;37801;53.224;6.552;2023-08-06T07:48:44;11.48;;;7.18;;
51724;SDS011;37801;53.224;6.552;2023-08-06T07:51:30;8.00;;;7.03;;
51724;SDS011;37801;53.224;6.552;2023-08-06T07:54:15;8.18;;;6.68;;
51724;SDS011;37801;53.224;6.552;2023-08-06T07:57:01;7.93;;;6.80;;
51724;SDS011;37801;53.224;6.552;2023-08-06T07:59:46;8.27;;;6.63;;
51724;SDS011;37801;53.224;6.552;2023-08-06T08:02:32;7.15;;;6.40;;
51724;SDS011;37801;53.224;6.552;2023-08-06T08:05:17;9.23;;;7.00;;
51724;SDS011;37801;53.224;6.552;2023-08-06T08:08:03;7.78;;;6.97;;
51724;SDS011;37801;53.224;6.552;2023-08-06T08:10:49;7.45;;;6.53;;
51724;SDS011;37801;53.224;6.552;2023-08-06T08:13:34;9.00;;;6.85;;
51724;SDS011;37801;53.224;6.552;2023-08-06T08:16:20;6.97;;;6.28;;
51724;SDS011;37801;53.224;6.552;2023-08-06T08:19:05;7.93;;;6.97;;
51724;SDS011;37801;53.224;6.552;2023-08-06T08:21:51;8.80;;;7.13;;
51724;SDS011;37801;53.224;6.552;2023-08-06T08:24:37;8.98;;;6.80;;
51724;SDS011;37801;53.224;6.552;2023-08-06T08:27:22;8.02;;;5.88;;
51724;SDS011;37801;53.224;6.552;2023-08-06T08:30:08;7.03;;;5.63;;
51724;SDS011;37801;53.224;6.552;2023-08-06T08:32:54;5.78;;;5.20;;
51724;SDS011;37801;53.224;6.552;2023-08-06T08:35:39;9.10;;;5.53;;
51724;SDS011;37801;53.224;6.552;2023-08-06T08:38:25;6.13;;;5.10;;
51724;SDS011;37801;53.224;6.552;2023-08-06T08:41:10;6.15;;;5.38;;
51724;SDS011;37801;53.224;6.552;2023-08-06T08:43:56;7.00;;;5.38;;
51724;SDS011;37801;53.224;6.552;2023-08-06T08:46:43;6.53;;;5.18;;
51724;SDS011;37801;53.224;6.552;2023-08-06T08:49:30;15.27;;;5.10;;
51724;SDS011;37801;53.224;6.552;2023-08-06T08:52:16;4.65;;;4.07;;
51724;SDS011;37801;53.224;6.552;2023-08-06T08:55:03;5.03;;;4.03;;
51724;SDS011;37801;53.224;6.552;2023-08-06T08:57:50;8.93;;;4.47;;
51724;SDS011;37801;53.224;6.552;2023-08-06T09:00:35;5.68;;;3.88;;
51724;SDS011;37801;53.224;6.552;2023-08-06T09:03:21;6.47;;;4.07;;
51724;SDS011;37801;53.224;6.552;2023-08-06T09:06:07;6.20;;;4.68;;
51724;SDS011;37801;53.224;6.552;2023-08-06T09:09:16;4.90;;;4.07;;
51724;SDS011;37801;53.224;6.552;2023-08-06T09:12:02;4.88;;;3.33;;
51724;SDS011;37801;53.224;6.552;2023-08-06T09:14:57;3.97;;;3.20;;
51724;SDS011;37801;53.224;6.552;2023-08-06T09:17:42;5.05;;;3.38;;
51724;SDS011;37801;53.224;6.552;2023-08-06T09:20:28;6.47;;;3.42;;
51724;SDS011;37801;53.224;6.552;2023-08-06T09:23:14;4.10;;;2.88;;
51724;SDS011;37801;53.224;6.552;2023-08-06T09:25:59;5.05;;;2.90;;
51724;SDS011;37801;53.224;6.552;2023-08-06T09:28:45;6.03;;;2.97;;
51724;SDS011;37801;53.224;6.552;2023-08-06T09:31:49;3.90;;;2.55;;
51724;SDS011;37801;53.224;6.552;2023-08-06T09:34:39;3.67;;;2.53;;
51724;SDS011;37801;53.224;6.552;2023-08-06T09:37:28;7.95;;;2.55;;
51724;SDS011;37801;53.224;6.552;2023-08-06T09:40:24;4.97;;;2.80;;
51724;SDS011;37801;53.224;6.552;2023-08-06T09:43:11;3.22;;;2.40;;
51724;SDS011;37801;53.224;6.552;2023-08-06T09:45:38;3.78;;;2.60;;
51724;SDS011;37801;53.224;6.552;2023-08-06T09:48:07;3.55;;;2.40;;
51724;SDS011;37801;53.224;6.552;2023-08-06T09:50:35;5.13;;;2.10;;
51724;SDS011;37801;53.224;6.552;2023-08-06T09:53:02;4.28;;;2.15;;
51724;SDS011;37801;53.224;6.552;2023-08-06T09:55:28;3.17;;;1.92;;
51724;SDS011;37801;53.224;6.552;2023-08-06T09:57:54;3.40;;;2.50;;
51724;SDS011;37801;53.224;6.552;2023-08-06T10:00:20;5.10;;;2.15;;
51724;SDS011;37801;53.224;6.552;2023-08-06T10:02:48;3.25;;;2.13;;
51724;SDS011;37801;53.224;6.552;2023-08-06T10:05:34;2.70;;;1.98;;
51724;SDS011;37801;53.224;6.552;2023-08-06T10:08:21;3.80;;;2.22;;
51724;SDS011;37801;53.224;6.552;2023-08-06T10:11:06;4.45;;;1.85;;
51724;SDS011;37801;53.224;6.552;2023-08-06T10:13:53;3.55;;;2.05;;
51724;SDS011;37801;53.224;6.552;2023-08-06T10:16:45;3.27;;;2.00;;
51724;SDS011;37801;53.224;6.552;2023-08-06T10:19:32;12.80;;;2.35;;
51724;SDS011;37801;53.224;6.552;2023-08-06T10:22:18;3.92;;;1.90;;
51724;SDS011;37801;53.224;6.552;2023-08-06T10:25:04;4.80;;;2.00;;
51724;SDS011;37801;53.224;6.552;2023-08-06T10:30:45;2.92;;;1.80;;
51724;SDS011;37801;53.224;6.552;2023-08-06T10:33:43;3.13;;;1.90;;
51724;SDS011;37801;53.224;6.552;2023-08-06T10:36:33;3.10;;;2.25;;
51724;SDS011;37801;53.224;6.552;2023-08-06T10:39:18;4.35;;;2.20;;
51724;SDS011;37801;53.224;6.552;2023-08-06T10:42:04;3.53;;;2.38;;
51724;SDS011;37801;53.224;6.552;2023-08-06T10:48:01;3.65;;;2.10;;
51724;SDS011;37801;53.224;6.552;2023-08-06T10:50:47;3.85;;;2.00;;
51724;SDS011;37801;53.224;6.552;2023-08-06T10:53:33;3.17;;;1.80;;
51724;SDS011;37801;53.224;6.552;2023-08-06T10:56:22;2.78;;;1.73;;
51724;SDS011;37801;53.224;6.552;2023-08-06T10:59:09;4.05;;;1.70;;
51724;SDS011;37801;53.224;6.552;2023-08-06T11:01:54;2.97;;;1.60;;
51724;SDS011;37801;53.224;6.552;2023-08-06T11:04:40;4.30;;;2.15;;
51724;SDS011;37801;53.224;6.552;2023-08-06T11:07:29;3.05;;;1.83;;
51724;SDS011;37801;53.224;6.552;2023-08-06T11:10:15;2.97;;;1.73;;
51724;SDS011;37801;53.224;6.552;2023-08-06T11:13:01;3.00;;;1.55;;
51724;SDS011;37801;53.224;6.552;2023-08-06T11:15:47;2.53;;;1.48;;
51724;SDS011;37801;53.224;6.552;2023-08-06T11:18:33;2.30;;;1.50;;
51724;SDS011;37801;53.224;6.552;2023-08-06T11:21:19;2.90;;;1.70;;
51724;SDS011;37801;53.224;6.552;2023-08-06T11:24:05;2.85;;;1.75;;
51724;SDS011;37801;53.224;6.552;2023-08-06T11:26:51;2.88;;;1.67;;
51724;SDS011;37801;53.224;6.552;2023-08-06T11:29:37;3.30;;;1.65;;
51724;SDS011;37801;53.224;6.552;2023-08-06T11:32:23;4.13;;;1.73;;
51724;SDS011;37801;53.224;6.552;2023-08-06T11:35:09;4.03;;;1.70;;
51724;SDS011;37801;53.224;6.552;2023-08-06T11:37:56;2.90;;;1.70;;
51724;SDS011;37801;53.224;6.552;2023-08-06T11:40:43;3.13;;;2.00;;
51724;SDS011;37801;53.224;6.552;2023-08-06T11:43:31;2.92;;;1.80;;
51724;SDS011;37801;53.224;6.552;2023-08-06T11:46:17;2.67;;;1.52;;
51724;SDS011;37801;53.224;6.552;2023-08-06T11:49:03;3.25;;;1.83;;
51724;SDS011;37801;53.224;6.552;2023-08-06T11:51:44;3.08;;;1.75;;
51724;SDS011;37801;53.224;6.552;2023-08-06T11:54:10;3.70;;;1.85;;
51724;SDS011;37801;53.224;6.552;2023-08-06T11:56:36;3.72;;;1.50;;
51724;SDS011;37801;53.224;6.552;2023-08-06T11:59:01;3.30;;;1.85;;
51724;SDS011;37801;53.224;6.552;2023-08-06T12:01:27;2.58;;;1.80;;
51724;SDS011;37801;53.224;6.552;2023-08-06T12:03:58;4.18;;;2.17;;
51724;SDS011;37801;53.224;6.552;2023-08-06T12:06:26;2.97;;;1.70;;
51724;SDS011;37801;53.224;6.552;2023-08-06T12:08:52;3.00;;;1.67;;
51724;SDS011;37801;53.224;6.552;2023-08-06T12:11:20;3.13;;;1.50;;
51724;SDS011;37801;53.224;6.552;2023-08-06T12:13:50;3.33;;;1.88;;
51724;SDS011;37801;53.224;6.552;2023-08-06T12:16:16;2.28;;;1.50;;
51724;SDS011;37801;53.224;6.552;2023-08-06T12:18:44;2.97;;;1.70;;
51724;SDS011;37801;53.224;6.552;2023-08-06T12:21:10;3.15;;;1.80;;
51724;SDS011;37801;53.224;6.552;2023-08-06T12:23:35;4.00;;;1.92;;
51724;SDS011;37801;53.224;6.552;2023-08-06T12:26:01;3.20;;;1.80;;
51724;SDS011;37801;53.224;6.552;2023-08-06T12:28:47;5.18;;;2.17;;
51724;SDS011;37801;53.224;6.552;2023-08-06T12:31:32;4.30;;;1.60;;
51724;SDS011;37801;53.224;6.552;2023-08-06T12:34:18;3.28;;;1.70;;
51724;SDS011;37801;53.224;6.552;2023-08-06T12:37:03;3.17;;;1.65;;
51724;SDS011;37801;53.224;6.552;2023-08-06T12:39:49;3.35;;;1.70;;
51724;SDS011;37801;53.224;6.552;2023-08-06T12:42:15;5.55;;;1.98;;
51724;SDS011;37801;53.224;6.552;2023-08-06T12:44:40;3.33;;;1.70;;
51724;SDS011;37801;53.224;6.552;2023-08-06T12:47:09;2.92;;;1.73;;
51724;SDS011;37801;53.224;6.552;2023-08-06T12:49:36;3.08;;;1.60;;
51724;SDS011;37801;53.224;6.552;2023-08-06T12:52:02;2.85;;;1.60;;
51724;SDS011;37801;53.224;6.552;2023-08-06T12:54:31;3.83;;;1.83;;
51724;SDS011;37801;53.224;6.552;2023-08-06T12:57:01;2.92;;;1.60;;
51724;SDS011;37801;53.224;6.552;2023-08-06T12:59:27;3.75;;;1.88;;
51724;SDS011;37801;53.224;6.552;2023-08-06T13:01:53;3.70;;;1.85;;
51724;SDS011;37801;53.224;6.552;2023-08-06T13:04:39;3.03;;;2.00;;
51724;SDS011;37801;53.224;6.552;2023-08-06T13:07:25;2.97;;;1.67;;
51724;SDS011;37801;53.224;6.552;2023-08-06T13:10:10;2.40;;;1.60;;
51724;SDS011;37801;53.224;6.552;2023-08-06T13:12:56;2.53;;;1.63;;
51724;SDS011;37801;53.224;6.552;2023-08-06T13:15:25;3.88;;;1.63;;
51724;SDS011;37801;53.224;6.552;2023-08-06T13:17:50;3.67;;;1.73;;
51724;SDS011;37801;53.224;6.552;2023-08-06T13:20:16;3.13;;;1.70;;
51724;SDS011;37801;53.224;6.552;2023-08-06T13:22:44;3.30;;;1.80;;
51724;SDS011;37801;53.224;6.552;2023-08-06T13:25:33;2.30;;;1.38;;
51724;SDS011;37801;53.224;6.552;2023-08-06T13:28:18;3.13;;;1.83;;
51724;SDS011;37801;53.224;6.552;2023-08-06T13:31:04;3.85;;;1.70;;
51724;SDS011;37801;53.224;6.552;2023-08-06T13:33:54;2.83;;;1.60;;
51724;SDS011;37801;53.224;6.552;2023-08-06T13:36:42;4.05;;;1.80;;
51724;SDS011;37801;53.224;6.552;2023-08-06T13:39:28;3.28;;;1.83;;
51724;SDS011;37801;53.224;6.552;2023-08-06T13:42:13;2.95;;;1.90;;
51724;SDS011;37801;53.224;6.552;2023-08-06T13:44:59;2.58;;;1.65;;
51724;SDS011;37801;53.224;6.552;2023-08-06T13:47:45;3.47;;;1.80;;
51724;SDS011;37801;53.224;6.552;2023-08-06T13:50:11;3.10;;;1.55;;
51724;SDS011;37801;53.224;6.552;2023-08-06T13:52:56;3.10;;;1.60;;
51724;SDS011;37801;53.224;6.552;2023-08-06T13:55:42;4.55;;;1.75;;
51724;SDS011;37801;53.224;6.552;2023-08-06T13:58:28;2.70;;;1.60;;
51724;SDS011;37801;53.224;6.552;2023-08-06T14:01:13;3.38;;;1.75;;
51724;SDS011;37801;53.224;6.552;2023-08-06T14:04:02;2.50;;;1.52;;
51724;SDS011;37801;53.224;6.552;2023-08-06T14:06:48;3.85;;;1.52;;
51724;SDS011;37801;53.224;6.552;2023-08-06T14:09:33;3.20;;;1.60;;
51724;SDS011;37801;53.224;6.552;2023-08-06T14:12:19;3.25;;;1.60;;
51724;SDS011;37801;53.224;6.552;2023-08-06T14:15:04;4.90;;;1.90;;
51724;SDS011;37801;53.224;6.552;2023-08-06T14:17:50;6.03;;;2.08;;
51724;SDS011;37801;53.224;6.552;2023-08-06T14:20:36;4.53;;;1.80;;
51724;SDS011;37801;53.224;6.552;2023-08-06T14:23:22;2.60;;;1.60;;
51724;SDS011;37801;53.224;6.552;2023-08-06T14:26:07;2.65;;;1.60;;
51724;SDS011;37801;53.224;6.552;2023-08-06T14:28:53;3.50;;;1.95;;
51724;SDS011;37801;53.224;6.552;2023-08-06T14:31:39;2.63;;;1.42;;
51724;SDS011;37801;53.224;6.552;2023-08-06T14:34:25;2.72;;;1.52;;
51724;SDS011;37801;53.224;6.552;2023-08-06T14:37:10;4.10;;;1.75;;
51724;SDS011;37801;53.224;6.552;2023-08-06T14:39:56;3.42;;;1.75;;
51724;SDS011;37801;53.224;6.552;2023-08-06T14:42:42;2.88;;;1.55;;
51724;SDS011;37801;53.224;6.552;2023-08-06T14:45:27;2.75;;;1.63;;
51724;SDS011;37801;53.224;6.552;2023-08-06T14:48:13;2.40;;;1.60;;
51724;SDS011;37801;53.224;6.552;2023-08-06T14:50:58;2.58;;;1.60;;
51724;SDS011;37801;53.224;6.552;2023-08-06T14:53:24;2.30;;;1.40;;
51724;SDS011;37801;53.224;6.552;2023-08-06T14:55:50;2.92;;;1.67;;
51724;SDS011;37801;53.224;6.552;2023-08-06T14:58:15;2.67;;;1.60;;
51724;SDS011;37801;53.224;6.552;2023-08-06T15:00:41;3.17;;;1.58;;
51724;SDS011;37801;53.224;6.552;2023-08-06T15:03:07;2.65;;;1.77;;
51724;SDS011;37801;53.224;6.552;2023-08-06T15:05:32;3.70;;;1.80;;
51724;SDS011;37801;53.224;6.552;2023-08-06T15:07:58;3.85;;;1.83;;
51724;SDS011;37801;53.224;6.552;2023-08-06T15:10:24;2.47;;;1.60;;
51724;SDS011;37801;53.224;6.552;2023-08-06T15:12:50;3.35;;;1.60;;
51724;SDS011;37801;53.224;6.552;2023-08-06T15:15:16;3.75;;;1.40;;
51724;SDS011;37801;53.224;6.552;2023-08-06T15:17:41;3.25;;;1.80;;
51724;SDS011;37801;53.224;6.552;2023-08-06T15:20:07;2.72;;;1.58;;
51724;SDS011;37801;53.224;6.552;2023-08-06T15:22:33;2.78;;;1.35;;
51724;SDS011;37801;53.224;6.552;2023-08-06T15:25:02;3.75;;;2.00;;
51724;SDS011;37801;53.224;6.552;2023-08-06T15:27:29;3.88;;;1.77;;
51724;SDS011;37801;53.224;6.552;2023-08-06T15:29:54;2.95;;;1.50;;
51724;SDS011;37801;53.224;6.552;2023-08-06T15:32:20;2.70;;;1.63;;